createdAt,value
2018-12-24T00:02:13.772Z,53.90
2018-12-24T00:04:42.975Z,53.90
2018-12-24T00:07:12.258Z,53.90
2018-12-24T00:09:41.514Z,53.90
2018-12-24T00:12:10.733Z,53.90
2018-12-24T00:14:39.978Z,53.60
2018-12-24T00:17:09.206Z,53.80
2018-12-24T00:19:38.425Z,53.80
2018-12-24T00:22:07.599Z,53.60
2018-12-24T00:24:36.831Z,53.90
2018-12-24T00:27:06.105Z,53.80
2018-12-24T00:29:35.370Z,53.90
2018-12-24T00:32:05.646Z,53.90
2018-12-24T00:34:34.833Z,54.00
2018-12-24T00:37:04.056Z,54.30
2018-12-24T00:39:33.298Z,54.20
2018-12-24T00:42:02.960Z,54.10
2018-12-24T00:44:32.138Z,54.00
2018-12-24T00:47:01.370Z,54.00
2018-12-24T00:49:30.626Z,53.90
2018-12-24T00:51:59.865Z,54.10
2018-12-24T00:54:29.094Z,54.30
2018-12-24T00:56:58.599Z,54.30
2018-12-24T00:59:27.816Z,54.50
2018-12-24T01:01:57.043Z,54.20
2018-12-24T01:04:26.186Z,54.30
2018-12-24T01:06:55.462Z,54.50
2018-12-24T01:09:24.734Z,54.40
2018-12-24T01:11:54.003Z,53.90
2018-12-24T01:14:23.593Z,54.50
2018-12-24T01:16:52.801Z,54.60
2018-12-24T01:19:25.225Z,54.20
2018-12-24T01:21:53.788Z,54.50
2018-12-24T01:24:23.199Z,54.50
2018-12-24T01:26:52.481Z,55.10
2018-12-24T01:29:21.648Z,54.40
2018-12-24T01:31:50.869Z,54.40
2018-12-24T01:34:20.080Z,54.30
2018-12-24T01:36:49.266Z,54.30
2018-12-24T01:39:18.416Z,54.20
2018-12-24T01:41:47.638Z,54.20
2018-12-24T01:44:16.834Z,54.20
2018-12-24T01:46:46.075Z,54.10
2018-12-24T01:49:15.962Z,54.10
2018-12-24T01:51:45.188Z,54.10
2018-12-24T01:54:14.387Z,54.10
2018-12-24T01:56:43.615Z,54.20
2018-12-24T01:59:12.845Z,54.10
2018-12-24T02:01:42.059Z,54.20
2018-12-24T02:04:11.277Z,54.10
2018-12-24T02:06:40.556Z,54.00
2018-12-24T02:09:09.776Z,54.10
2018-12-24T02:11:39.010Z,54.10
2018-12-24T02:14:08.221Z,54.20
2018-12-24T02:16:37.459Z,54.30
2018-12-24T02:19:06.736Z,54.40
2018-12-24T02:21:35.949Z,54.30
2018-12-24T02:24:05.126Z,54.40
2018-12-24T02:26:34.342Z,54.30
2018-12-24T02:29:03.602Z,54.30
2018-12-24T02:31:32.827Z,54.50
2018-12-24T02:34:02.038Z,54.60
2018-12-24T02:36:31.248Z,54.10
2018-12-24T02:39:17.232Z,54.50
2018-12-24T02:41:53.354Z,54.30
2018-12-24T02:44:22.552Z,54.50
2018-12-24T02:46:51.773Z,54.40
2018-12-24T02:49:21.007Z,54.50
2018-12-24T02:51:50.226Z,54.30
2018-12-24T02:54:19.469Z,54.40
2018-12-24T02:56:48.699Z,54.40
2018-12-24T02:59:17.905Z,54.50
2018-12-24T03:01:47.074Z,54.30
2018-12-24T03:04:16.628Z,54.30
2018-12-24T03:06:45.886Z,54.40
2018-12-24T03:09:15.559Z,54.30
2018-12-24T03:11:44.832Z,54.30
2018-12-24T03:14:14.306Z,54.40
2018-12-24T03:16:43.475Z,54.20
2018-12-24T03:19:12.738Z,54.20
2018-12-24T03:21:42.608Z,54.30
2018-12-24T03:24:11.819Z,54.10
2018-12-24T03:26:41.041Z,54.20
2018-12-24T03:29:10.258Z,54.10
2018-12-24T03:31:39.467Z,54.10
2018-12-24T03:34:08.689Z,54.00
2018-12-24T03:36:37.937Z,54.00
2018-12-24T03:39:07.613Z,53.90
2018-12-24T03:41:36.810Z,54.10
2018-12-24T03:44:06.046Z,54.20
2018-12-24T03:46:35.302Z,54.20
2018-12-24T03:49:04.505Z,54.10
2018-12-24T03:51:33.699Z,54.20
2018-12-24T03:54:02.927Z,54.10
2018-12-24T03:56:32.207Z,54.30
2018-12-24T03:59:01.426Z,54.10
2018-12-24T04:01:30.632Z,54.10
2018-12-24T04:03:59.842Z,54.20
2018-12-24T04:06:29.057Z,54.30
2018-12-24T04:08:58.254Z,54.40
2018-12-24T04:11:27.523Z,54.30
2018-12-24T04:13:56.726Z,54.10
2018-12-24T04:16:25.964Z,53.90
2018-12-24T04:18:55.243Z,54.30
2018-12-24T04:21:24.460Z,54.40
2018-12-24T04:23:53.675Z,54.30
2018-12-24T04:26:22.914Z,54.40
2018-12-24T04:28:52.094Z,54.10
2018-12-24T04:31:21.639Z,54.40
2018-12-24T04:33:50.878Z,54.50
2018-12-24T04:36:20.069Z,54.30
2018-12-24T04:38:49.349Z,54.40
2018-12-24T04:41:18.508Z,54.30
2018-12-24T04:43:47.682Z,54.40
2018-12-24T04:46:16.919Z,54.30
2018-12-24T04:48:46.082Z,54.30
2018-12-24T04:51:15.309Z,54.20
2018-12-24T04:53:44.516Z,54.20
2018-12-24T04:56:13.689Z,54.10
2018-12-24T04:58:42.956Z,54.20
2018-12-24T05:01:12.142Z,54.10
2018-12-24T05:03:41.371Z,53.90
2018-12-24T05:06:10.661Z,54.80
2018-12-24T05:08:39.878Z,54.20
2018-12-24T05:11:09.116Z,54.20
2018-12-24T05:13:41.000Z,53.90
2018-12-24T05:16:09.178Z,54.10
2018-12-24T05:18:38.440Z,53.90
2018-12-24T05:21:07.679Z,54.20
2018-12-24T05:23:36.822Z,54.10
2018-12-24T05:26:06.056Z,54.00
2018-12-24T05:28:35.238Z,54.00
2018-12-24T05:31:04.461Z,54.10
2018-12-24T05:33:33.673Z,54.00
2018-12-24T05:36:02.867Z,54.00
2018-12-24T05:38:32.116Z,54.20
2018-12-24T05:41:01.338Z,54.00
2018-12-24T05:43:30.446Z,54.10
2018-12-24T05:45:59.679Z,54.20
2018-12-24T05:48:29.192Z,54.10
2018-12-24T05:50:58.370Z,54.10
2018-12-24T05:53:27.598Z,54.20
2018-12-24T05:55:56.854Z,54.20
2018-12-24T05:58:26.084Z,54.10
2018-12-24T06:00:55.286Z,54.20
2018-12-24T06:03:24.527Z,54.30
2018-12-24T06:05:53.769Z,54.30
2018-12-24T06:08:22.986Z,54.40
2018-12-24T06:10:54.597Z,54.30
2018-12-24T06:13:23.804Z,54.30
2018-12-24T06:15:53.027Z,54.30
2018-12-24T06:18:22.237Z,54.20
2018-12-24T06:20:51.462Z,54.30
2018-12-24T06:23:20.694Z,54.30
2018-12-24T06:25:49.841Z,54.20
2018-12-24T06:28:19.023Z,54.10
2018-12-24T06:30:48.658Z,53.90
2018-12-24T06:33:17.832Z,54.90
2018-12-24T06:35:47.039Z,55.30
2018-12-24T06:38:16.282Z,55.60
2018-12-24T06:40:45.446Z,55.60
2018-12-24T06:43:14.645Z,56.00
2018-12-24T06:45:43.902Z,55.30
2018-12-24T06:48:13.083Z,55.20
2018-12-24T06:50:42.289Z,55.00
2018-12-24T06:53:11.494Z,54.90
2018-12-24T06:55:40.930Z,55.00
2018-12-24T06:58:10.185Z,54.90
2018-12-24T07:00:39.403Z,55.10
2018-12-24T07:03:08.635Z,55.10
2018-12-24T07:05:37.853Z,55.10
2018-12-24T07:08:07.051Z,54.70
2018-12-24T07:10:36.904Z,54.70
2018-12-24T07:13:06.140Z,54.80
2018-12-24T07:15:35.348Z,55.00
2018-12-24T07:18:04.641Z,54.90
2018-12-24T07:20:33.849Z,55.00
2018-12-24T07:23:02.974Z,54.90
2018-12-24T07:25:32.210Z,54.80
2018-12-24T07:28:01.445Z,55.00
2018-12-24T07:30:30.606Z,55.10
2018-12-24T07:32:59.869Z,55.00
2018-12-24T07:35:29.070Z,55.10
2018-12-24T07:37:58.285Z,55.20
2018-12-24T07:40:28.520Z,55.20
2018-12-24T07:42:59.336Z,55.00
2018-12-24T07:45:28.730Z,55.10
2018-12-24T07:47:58.294Z,55.10
2018-12-24T07:50:27.675Z,55.00
2018-12-24T07:52:57.382Z,55.00
2018-12-24T07:55:26.817Z,55.00
2018-12-24T07:57:56.415Z,54.90
2018-12-24T08:00:26.091Z,54.90
2018-12-24T08:02:55.398Z,54.90
2018-12-24T08:05:24.669Z,55.00
2018-12-24T08:07:53.838Z,55.00
2018-12-24T08:10:23.101Z,54.90
2018-12-24T08:12:52.337Z,54.70
2018-12-24T08:15:21.521Z,54.70
2018-12-24T08:17:50.776Z,54.70
2018-12-24T08:20:19.983Z,54.80
2018-12-24T08:22:49.214Z,54.70
2018-12-24T08:25:18.403Z,54.70
2018-12-24T08:27:47.604Z,54.80
2018-12-24T08:30:16.829Z,54.80
2018-12-24T08:32:46.102Z,54.70
2018-12-24T08:35:15.655Z,54.80
2018-12-24T08:37:44.785Z,54.70
2018-12-24T08:40:14.007Z,54.70
2018-12-24T08:42:43.255Z,54.70
2018-12-24T08:45:12.484Z,54.60
2018-12-24T08:47:41.732Z,54.50
2018-12-24T08:50:11.225Z,54.60
2018-12-24T08:52:40.518Z,54.50
2018-12-24T08:55:09.714Z,54.50
2018-12-24T08:57:39.010Z,54.50
2018-12-24T09:00:08.245Z,54.50
2018-12-24T09:02:37.463Z,54.40
2018-12-24T09:05:06.654Z,54.50
2018-12-24T09:07:36.244Z,54.50
2018-12-24T09:10:05.485Z,54.50
2018-12-24T09:12:34.736Z,54.40
2018-12-24T09:15:03.938Z,54.30
2018-12-24T09:17:35.106Z,54.40
2018-12-24T09:20:04.098Z,54.40
2018-12-24T09:22:33.350Z,54.40
2018-12-24T09:25:02.613Z,54.30
2018-12-24T09:27:31.801Z,54.90
2018-12-24T09:30:00.960Z,55.90
2018-12-24T09:32:30.182Z,55.30
2018-12-24T09:34:59.364Z,54.90
2018-12-24T09:37:28.588Z,55.50
2018-12-24T09:39:57.759Z,55.70
2018-12-24T09:42:27.019Z,55.00
2018-12-24T09:44:59.054Z,54.80
2018-12-24T09:47:27.085Z,54.90
2018-12-24T09:49:56.302Z,54.90
2018-12-24T09:52:25.522Z,54.80
2018-12-24T09:54:55.223Z,54.90
2018-12-24T09:57:24.456Z,54.90
2018-12-24T09:59:53.665Z,54.90
2018-12-24T10:02:29.125Z,54.90
2018-12-24T10:04:58.306Z,54.80
2018-12-24T10:07:40.778Z,54.60
2018-12-24T10:10:12.944Z,54.60
2018-12-24T10:12:42.210Z,54.50
2018-12-24T10:15:11.437Z,54.50
2018-12-24T10:17:40.957Z,54.40
2018-12-24T10:20:10.615Z,54.40
2018-12-24T10:22:39.921Z,54.40
2018-12-24T10:25:09.081Z,54.30
2018-12-24T10:27:38.338Z,54.20
2018-12-24T10:30:07.997Z,54.20
2018-12-24T10:32:37.242Z,54.10
2018-12-24T10:35:06.629Z,54.10
2018-12-24T10:37:35.811Z,54.10
2018-12-24T10:40:11.419Z,54.10
2018-12-24T10:42:40.657Z,54.00
2018-12-24T10:45:16.408Z,54.00
2018-12-24T10:47:40.790Z,54.00
2018-12-24T10:50:09.938Z,53.90
2018-12-24T10:52:39.125Z,53.90
2018-12-24T10:55:08.334Z,53.80
2018-12-24T10:57:37.570Z,53.80
2018-12-24T11:00:09.052Z,53.80
2018-12-24T11:02:38.325Z,53.90
2018-12-24T11:05:07.518Z,53.80
2018-12-24T11:07:36.748Z,53.80
2018-12-24T11:10:09.314Z,54.50
2018-12-24T11:12:38.539Z,53.80
2018-12-24T11:15:09.641Z,53.80
2018-12-24T11:17:38.842Z,53.80
2018-12-24T11:20:08.566Z,53.90
2018-12-24T11:22:37.830Z,53.80
2018-12-24T11:25:08.862Z,54.00
2018-12-24T11:27:38.106Z,53.80
2018-12-24T11:30:08.402Z,53.80
2018-12-24T11:32:37.606Z,53.90
2018-12-24T11:35:06.893Z,53.90
2018-12-24T11:37:36.063Z,53.90
2018-12-24T11:40:05.561Z,53.80
2018-12-24T11:42:34.781Z,53.80
2018-12-24T11:45:03.978Z,53.80
2018-12-24T11:47:33.190Z,53.80
2018-12-24T11:50:02.831Z,53.80
2018-12-24T11:52:32.046Z,53.80
2018-12-24T11:55:01.687Z,53.70
2018-12-24T11:57:30.904Z,53.60
2018-12-24T12:00:00.195Z,53.10
2018-12-24T12:02:29.399Z,52.90
2018-12-24T12:04:58.615Z,53.10
2018-12-24T12:07:27.825Z,53.00
2018-12-24T12:09:57.071Z,53.00
2018-12-24T12:12:26.307Z,53.10
2018-12-24T12:14:55.589Z,53.00
2018-12-24T12:17:24.850Z,53.00
2018-12-24T12:19:54.185Z,53.00
2018-12-24T12:22:23.454Z,53.00
2018-12-24T12:24:52.689Z,53.00
2018-12-24T12:27:22.299Z,53.10
2018-12-24T12:29:51.474Z,53.20
2018-12-24T12:32:20.710Z,53.20
2018-12-24T12:34:50.028Z,53.20
2018-12-24T12:37:19.310Z,53.30
2018-12-24T12:39:48.545Z,53.90
2018-12-24T12:42:17.835Z,53.50
2018-12-24T12:44:46.976Z,53.50
2018-12-24T12:47:17.296Z,53.50
2018-12-24T12:49:46.511Z,53.40
2018-12-24T12:52:15.679Z,53.50
2018-12-24T12:54:44.907Z,53.30
2018-12-24T12:57:14.150Z,53.60
2018-12-24T12:59:43.415Z,53.60
2018-12-24T13:02:12.646Z,53.50
2018-12-24T13:04:41.897Z,53.60
2018-12-24T13:07:11.160Z,53.60
2018-12-24T13:09:40.386Z,53.40
2018-12-24T13:12:09.623Z,53.20
2018-12-24T13:14:38.885Z,53.10
2018-12-24T13:17:08.101Z,53.00
2018-12-24T13:19:37.312Z,52.70
2018-12-24T13:22:06.593Z,52.50
2018-12-24T13:24:40.316Z,52.40
2018-12-24T13:27:09.620Z,54.00
2018-12-24T13:29:38.842Z,53.00
2018-12-24T13:32:08.057Z,60.20
2018-12-24T13:34:37.271Z,63.90
2018-12-24T13:37:06.438Z,62.90
2018-12-24T13:39:35.716Z,56.70
2018-12-24T13:42:04.904Z,57.00
2018-12-24T13:44:34.115Z,57.10
2018-12-24T13:47:03.313Z,58.70
2018-12-24T13:49:33.658Z,57.50
2018-12-24T13:52:02.922Z,58.40
2018-12-24T13:54:32.305Z,58.50
2018-12-24T13:57:01.477Z,57.90
2018-12-24T13:59:30.667Z,57.30
2018-12-24T14:01:59.861Z,57.00
2018-12-24T14:04:29.025Z,56.80
2018-12-24T14:06:58.281Z,56.70
2018-12-24T14:09:27.470Z,56.40
2018-12-24T14:11:56.594Z,56.20
2018-12-24T14:14:25.858Z,55.70
2018-12-24T14:16:55.500Z,55.30
2018-12-24T14:19:24.741Z,55.20
2018-12-24T14:21:53.945Z,55.10
2018-12-24T14:24:23.154Z,55.00
2018-12-24T14:26:52.474Z,54.90
2018-12-24T14:29:21.610Z,54.90
2018-12-24T14:31:50.797Z,54.80
2018-12-24T14:34:19.942Z,54.70
2018-12-24T14:36:49.167Z,54.70
2018-12-24T14:39:18.853Z,54.60
2018-12-24T14:41:48.113Z,54.60
2018-12-24T14:44:17.247Z,54.50
2018-12-24T14:46:46.436Z,55.00
2018-12-24T14:49:15.660Z,54.40
2018-12-24T14:51:44.885Z,54.40
2018-12-24T14:54:14.099Z,54.40
2018-12-24T14:56:43.273Z,54.30
2018-12-24T14:59:12.538Z,54.30
2018-12-24T15:01:41.741Z,54.20
2018-12-24T15:04:10.939Z,54.20
2018-12-24T15:06:40.108Z,54.20
2018-12-24T15:09:09.342Z,54.20
2018-12-24T15:11:38.579Z,54.10
2018-12-24T15:14:07.781Z,54.00
2018-12-24T15:16:37.061Z,54.00
2018-12-24T15:19:06.371Z,53.80
2018-12-24T15:21:35.591Z,53.80
2018-12-24T15:24:04.866Z,53.80
2018-12-24T15:26:34.155Z,53.80
2018-12-24T15:29:03.374Z,53.80
2018-12-24T15:31:32.585Z,53.80
2018-12-24T15:34:01.794Z,53.70
2018-12-24T15:36:32.251Z,53.70
2018-12-24T15:39:01.567Z,53.60
2018-12-24T15:41:30.770Z,53.80
2018-12-24T15:43:59.973Z,53.60
2018-12-24T15:46:29.203Z,53.60
2018-12-24T15:48:58.420Z,53.70
2018-12-24T15:51:27.672Z,53.50
2018-12-24T15:53:56.863Z,53.40
2018-12-24T15:56:26.143Z,53.60
2018-12-24T15:58:55.315Z,53.70
2018-12-24T16:01:24.506Z,53.50
2018-12-24T16:03:53.729Z,53.50
2018-12-24T16:06:22.993Z,53.50
2018-12-24T16:08:52.202Z,53.50
2018-12-24T16:11:21.427Z,53.40
2018-12-24T16:13:50.602Z,53.40
2018-12-24T16:16:19.861Z,53.40
2018-12-24T16:18:49.083Z,53.30
2018-12-24T16:21:18.282Z,53.40
2018-12-24T16:23:47.540Z,53.40
2018-12-24T16:26:16.759Z,53.30
2018-12-24T16:28:45.976Z,53.70
2018-12-24T16:31:15.193Z,53.30
2018-12-24T16:33:44.374Z,53.20
2018-12-24T16:36:13.641Z,53.20
2018-12-24T16:38:42.833Z,53.20
2018-12-24T16:41:12.000Z,53.20
2018-12-24T16:43:41.270Z,53.20
2018-12-24T16:46:10.446Z,53.20
2018-12-24T16:48:39.670Z,53.20
2018-12-24T16:51:09.006Z,53.70
2018-12-24T16:53:40.612Z,53.10
2018-12-24T16:56:09.053Z,53.00
2018-12-24T16:58:38.339Z,53.00
2018-12-24T17:01:07.583Z,53.00
2018-12-24T17:03:36.996Z,53.10
2018-12-24T17:06:06.189Z,53.00
2018-12-24T17:08:35.321Z,53.10
2018-12-24T17:11:04.541Z,53.00
2018-12-24T17:13:33.781Z,52.90
2018-12-24T17:16:03.898Z,52.90
2018-12-24T17:18:33.190Z,52.90
2018-12-24T17:21:02.402Z,52.80
2018-12-24T17:23:31.606Z,52.90
2018-12-24T17:26:00.825Z,52.90
2018-12-24T17:28:30.023Z,52.80
2018-12-24T17:30:59.222Z,52.80
2018-12-24T17:33:28.377Z,52.70
2018-12-24T17:35:57.575Z,52.70
2018-12-24T17:38:26.782Z,52.80
2018-12-24T17:40:56.049Z,52.80
2018-12-24T17:43:25.239Z,52.70
2018-12-24T17:45:54.440Z,52.70
2018-12-24T17:48:23.671Z,52.70
2018-12-24T17:50:52.860Z,52.60
2018-12-24T17:53:22.061Z,52.60
2018-12-24T17:55:51.293Z,52.50
2018-12-24T17:58:20.521Z,53.10
2018-12-24T18:00:49.729Z,52.60
2018-12-24T18:03:18.954Z,52.60
2018-12-24T18:05:48.078Z,52.60
2018-12-24T18:08:17.281Z,52.60
2018-12-24T18:10:46.466Z,52.50
2018-12-24T18:13:15.627Z,52.60
2018-12-24T18:15:44.867Z,52.50
2018-12-24T18:18:14.055Z,52.50
2018-12-24T18:20:43.284Z,52.50
2018-12-24T18:23:12.546Z,52.50
2018-12-24T18:25:41.774Z,52.40
2018-12-24T18:28:11.122Z,52.40
2018-12-24T18:30:40.293Z,52.50
2018-12-24T18:33:09.502Z,52.40
2018-12-24T18:35:38.734Z,52.40
2018-12-24T18:38:07.940Z,52.40
2018-12-24T18:40:37.138Z,52.40
2018-12-24T18:43:06.380Z,52.40
2018-12-24T18:45:35.597Z,52.30
2018-12-24T18:48:04.807Z,52.30
2018-12-24T18:50:34.150Z,52.20
2018-12-24T18:53:03.333Z,52.30
2018-12-24T18:55:32.920Z,52.30
2018-12-24T18:58:02.498Z,52.20
2018-12-24T19:00:31.701Z,52.20
2018-12-24T19:03:00.937Z,52.20
2018-12-24T19:05:30.154Z,52.20
2018-12-24T19:07:59.313Z,52.20
2018-12-24T19:10:28.520Z,52.10
2018-12-24T19:12:58.075Z,52.00
2018-12-24T19:15:27.294Z,52.10
2018-12-24T19:17:56.517Z,52.00
2018-12-24T19:20:25.705Z,52.00
2018-12-24T19:22:54.947Z,52.00
2018-12-24T19:25:24.169Z,52.00
2018-12-24T19:27:53.428Z,52.00
2018-12-24T19:30:22.604Z,52.00
2018-12-24T19:32:51.841Z,52.00
2018-12-24T19:35:21.046Z,52.00
2018-12-24T19:37:50.209Z,52.00
2018-12-24T19:40:19.428Z,51.90
2018-12-24T19:42:48.721Z,52.00
2018-12-24T19:45:17.949Z,52.00
2018-12-24T19:47:49.980Z,51.90
2018-12-24T19:50:18.008Z,51.80
2018-12-24T19:52:47.290Z,51.90
2018-12-24T19:55:16.451Z,51.80
2018-12-24T19:57:45.674Z,51.90
2018-12-24T20:00:14.892Z,51.80
2018-12-24T20:02:44.093Z,51.80
2018-12-24T20:05:13.357Z,51.80
2018-12-24T20:07:42.552Z,51.80
2018-12-24T20:10:11.751Z,51.80
2018-12-24T20:12:40.975Z,51.80
2018-12-24T20:15:10.191Z,51.90
2018-12-24T20:17:39.477Z,51.90
2018-12-24T20:20:09.053Z,51.70
2018-12-24T20:22:38.335Z,51.70
2018-12-24T20:25:07.577Z,51.70
2018-12-24T20:27:36.770Z,51.60
2018-12-24T20:30:06.036Z,51.60
2018-12-24T20:32:35.198Z,51.60
2018-12-24T20:35:04.349Z,51.60
2018-12-24T20:37:33.535Z,51.60
2018-12-24T20:40:02.731Z,51.80
2018-12-24T20:42:31.957Z,52.00
2018-12-24T20:45:01.407Z,51.70
2018-12-24T20:47:30.613Z,52.10
2018-12-24T20:49:59.853Z,52.00
2018-12-24T20:52:29.067Z,51.50
2018-12-24T20:54:58.283Z,51.60
2018-12-24T20:57:27.488Z,51.80
2018-12-24T20:59:56.682Z,51.80
2018-12-24T21:02:25.874Z,51.90
2018-12-24T21:04:55.090Z,52.00
2018-12-24T21:07:24.273Z,51.90
2018-12-24T21:09:53.477Z,52.10
2018-12-24T21:12:22.811Z,52.00
2018-12-24T21:14:52.340Z,51.80
2018-12-24T21:17:21.558Z,52.00
2018-12-24T21:19:50.762Z,51.90
2018-12-24T21:22:20.313Z,51.40
2018-12-24T21:24:49.506Z,52.00
2018-12-24T21:27:18.770Z,52.10
2018-12-24T21:29:48.047Z,52.20
2018-12-24T21:32:17.242Z,52.20
2018-12-24T21:34:46.584Z,52.20
2018-12-24T21:37:16.234Z,52.30
2018-12-24T21:39:45.438Z,51.90
2018-12-24T21:42:14.706Z,51.90
2018-12-24T21:44:44.294Z,51.90
2018-12-24T21:47:13.509Z,51.30
2018-12-24T21:49:42.777Z,51.40
2018-12-24T21:52:11.991Z,51.60
2018-12-24T21:54:41.227Z,50.90
2018-12-24T21:57:10.450Z,50.90
2018-12-24T21:59:39.685Z,50.70
2018-12-24T22:02:08.820Z,50.50
2018-12-24T22:04:37.992Z,50.50
2018-12-24T22:07:07.173Z,50.50
2018-12-24T22:09:36.401Z,50.30
2018-12-24T22:12:05.617Z,50.40
2018-12-24T22:14:34.929Z,50.70
2018-12-24T22:17:04.138Z,50.80
2018-12-24T22:19:33.294Z,50.80
2018-12-24T22:22:02.644Z,50.70
2018-12-24T22:24:31.862Z,50.50
2018-12-24T22:27:01.018Z,50.60
2018-12-24T22:29:30.319Z,48.70
2018-12-24T22:31:59.554Z,48.30
2018-12-24T22:34:28.777Z,48.60
2018-12-24T22:36:58.090Z,48.60
2018-12-24T22:39:27.211Z,49.10
2018-12-24T22:41:56.421Z,49.40
2018-12-24T22:44:25.708Z,49.70
2018-12-24T22:46:54.963Z,49.90
2018-12-24T22:49:24.184Z,50.00
2018-12-24T22:51:53.446Z,50.10
2018-12-24T22:54:22.662Z,50.10
2018-12-24T22:56:51.882Z,50.10
2018-12-24T22:59:21.093Z,50.10
2018-12-24T23:01:50.305Z,50.20
2018-12-24T23:04:19.550Z,50.20
2018-12-24T23:06:48.770Z,50.30
2018-12-24T23:09:17.995Z,50.30
2018-12-24T23:11:47.213Z,50.30
2018-12-24T23:14:16.406Z,50.40
2018-12-24T23:16:45.626Z,50.40
2018-12-24T23:19:14.911Z,50.50
2018-12-24T23:21:44.113Z,50.60
2018-12-24T23:24:13.346Z,50.50
2018-12-24T23:26:42.702Z,50.50
2018-12-24T23:29:11.971Z,50.50
2018-12-24T23:31:41.228Z,50.40
2018-12-24T23:34:10.523Z,50.60
2018-12-24T23:36:39.834Z,50.60
2018-12-24T23:39:09.159Z,50.90
2018-12-24T23:41:38.445Z,50.90
2018-12-24T23:44:07.762Z,50.80
2018-12-24T23:46:37.122Z,50.90
2018-12-24T23:49:06.337Z,51.00
2018-12-24T23:51:35.580Z,51.00
2018-12-24T23:54:04.802Z,50.90
2018-12-24T23:56:34.003Z,50.90
2018-12-24T23:59:03.522Z,51.00
